Time;durP1;ratioP1;P1;durP2;ratioP2;P2;SDS_P1;SDS_P2;PMS_P1;PMS_P2;Temp;Humidity;BMP_temperature;BMP_pressure;BME280_temperature;BME280_humidity;BME280_pressure;Samples;Min_cycle;Max_cycle;Signal;HPM_P1;HPM_P2
2022/11/16 00:01:38;;;;;;;23.85;10.40;;;;;;;;;;5040143;28;20443;-51
2022/11/16 00:04:06;;;;;;;28.95;13.25;;;;;;;;;;5040801;28;20863;-51
2022/11/16 00:06:33;;;;;;;22.40;9.93;;;;;;;;;;5035245;28;20050;-51
2022/11/16 00:11:47;;;;;;;;;;;;;;;;;;5052410;28;20190;-51
2022/11/16 00:14:16;;;;;;;26.00;9.07;;;;;;;;;;5052794;28;19970;-52
2022/11/16 00:16:44;;;;;;;25.88;10.70;;;;;;;;;;5046041;28;20053;-55
2022/11/16 00:19:12;;;;;;;24.85;10.10;;;;;;;;;;5048357;28;20127;-50
2022/11/16 00:21:40;;;;;;;20.92;9.68;;;;;;;;;;5045198;28;20114;-51
2022/11/16 00:24:08;;;;;;;21.70;9.73;;;;;;;;;;5038039;28;20053;-52
2022/11/16 00:26:36;;;;;;;28.25;11.13;;;;;;;;;;5035171;28;20057;-51
2022/11/16 00:29:03;;;;;;;29.42;12.10;;;;;;;;;;5038546;28;20099;-51
2022/11/16 00:31:36;;;;;;;29.27;12.32;;;;;;;;;;5045541;28;20049;-52
2022/11/16 00:34:03;;;;;;;28.52;11.98;;;;;;;;;;5035772;28;20057;-51
2022/11/16 00:36:31;;;;;;;29.65;11.95;;;;;;;;;;5047458;28;20049;-53
2022/11/16 00:38:59;;;;;;;29.00;12.75;;;;;;;;;;5040679;28;20049;-51
2022/11/16 00:41:27;;;;;;;24.98;10.80;;;;;;;;;;5053818;28;20102;-51
2022/11/16 00:43:55;;;;;;;26.98;11.65;;;;;;;;;;5045049;28;20048;-53
2022/11/16 00:46:23;;;;;;;23.55;9.15;;;;;;;;;;5041401;28;20075;-51
2022/11/16 00:48:52;;;;;;;30.10;12.10;;;;;;;;;;5042118;28;20045;-50
2022/11/16 00:51:19;;;;;;;26.38;11.07;;;;;;;;;;5054145;28;20072;-51
2022/11/16 00:53:47;;;;;;;23.25;10.07;;;;;;;;;;5053637;28;20045;-52
2022/11/16 00:56:15;;;;;;;24.70;10.73;;;;;;;;;;5046657;28;20057;-51
2022/11/16 00:58:43;;;;;;;25.38;11.00;;;;;;;;;;5037946;28;20107;-52
2022/11/16 01:01:13;;;;;;;24.83;10.23;;;;;;;;;;5047336;28;20115;-54
2022/11/16 01:03:43;;;;;;;28.00;11.05;;;;;;;;;;5044684;28;20159;-52
2022/11/16 01:06:13;;;;;;;28.35;10.68;;;;;;;;;;5036784;28;20576;-51
2022/11/16 01:08:41;;;;;;;24.27;10.45;;;;;;;;;;5034052;28;20115;-51
2022/11/16 01:13:55;;;;;;;27.10;10.02;;;;;;;;;;5053464;28;20111;-51
2022/11/16 01:16:23;;;;;;;22.42;9.18;;;;;;;;;;5034219;28;20048;-52
2022/11/16 01:18:51;;;;;;;24.10;9.73;;;;;;;;;;5046818;28;20347;-51
2022/11/16 01:21:20;;;;;;;27.73;10.38;;;;;;;;;;5041083;28;20106;-51
2022/11/16 01:23:48;;;;;;;24.23;10.35;;;;;;;;;;5040076;28;20450;-50
2022/11/16 01:26:17;;;;;;;24.70;9.68;;;;;;;;;;5052997;28;20053;-50
2022/11/16 01:28:45;;;;;;;18.50;8.25;;;;;;;;;;5041832;28;20111;-51
2022/11/16 01:31:13;;;;;;;24.90;11.23;;;;;;;;;;5048027;28;20124;-50
2022/11/16 01:33:43;;;;;;;24.25;10.40;;;;;;;;;;5048000;28;20053;-51
2022/11/16 01:36:13;;;;;;;26.38;9.90;;;;;;;;;;5040324;28;20106;-51
2022/11/16 01:38:49;;;;;;;24.88;9.85;;;;;;;;;;5052234;28;20369;-51
2022/11/16 01:41:17;;;;;;;23.10;9.75;;;;;;;;;;5043949;28;20056;-52
2022/11/16 01:43:53;;;;;;;24.10;10.07;;;;;;;;;;5035396;28;20119;-52
2022/11/16 01:46:22;;;;;;;24.02;9.23;;;;;;;;;;5042664;28;20045;-51
2022/11/16 01:48:51;;;;;;;22.45;9.07;;;;;;;;;;5035317;28;20049;-51
2022/11/16 01:51:21;;;;;;;21.02;8.75;;;;;;;;;;5035034;28;20053;-51
2022/11/16 01:53:51;;;;;;;17.33;7.22;;;;;;;;;;5037572;28;20067;-51
2022/11/16 01:56:18;;;;;;;10.98;5.50;;;;;;;;;;5043862;28;20110;-51
2022/11/16 01:58:46;;;;;;;9.88;4.43;;;;;;;;;;5045928;28;20122;-52
2022/11/16 02:01:14;;;;;;;7.00;2.95;;;;;;;;;;5047209;28;20091;-51
2022/11/16 02:03:41;;;;;;;4.05;1.70;;;;;;;;;;5041641;28;20053;-51
2022/11/16 02:06:18;;;;;;;6.22;1.98;;;;;;;;;;5044068;28;20103;-51
2022/11/16 02:11:53;;;;;;;5.85;1.70;;;;;;;;;;5037128;28;20481;-50
2022/11/16 02:14:32;;;;;;;3.05;1.45;;;;;;;;;;5048960;28;20122;-52
2022/11/16 02:17:03;;;;;;;5.18;1.40;;;;;;;;;;5048943;28;20060;-52
2022/11/16 02:19:40;;;;;;;4.40;1.40;;;;;;;;;;5042047;28;20053;-49
2022/11/16 02:22:20;;;;;;;3.30;1.92;;;;;;;;;;5049370;28;20049;-50
2022/11/16 02:24:50;;;;;;;2.65;1.20;;;;;;;;;;5041906;28;20049;-50
2022/11/16 02:27:37;;;;;;;2.75;1.17;;;;;;;;;;5038538;28;20470;-51
2022/11/16 02:30:07;;;;;;;2.45;1.15;;;;;;;;;;5051492;28;20041;-49
2022/11/16 02:32:36;;;;;;;3.35;1.33;;;;;;;;;;5051014;28;20424;-50
2022/11/16 02:35:06;;;;;;;2.55;1.10;;;;;;;;;;5047707;28;20103;-50
2022/11/16 02:37:35;;;;;;;2.53;1.00;;;;;;;;;;5043776;28;20057;-50
2022/11/16 02:40:05;;;;;;;4.40;0.90;;;;;;;;;;5048522;28;20103;-49
2022/11/16 02:42:35;;;;;;;3.95;1.23;;;;;;;;;;5052688;28;20049;-50
2022/11/16 02:45:05;;;;;;;1.63;0.77;;;;;;;;;;5047582;28;20116;-49
2022/11/16 02:47:35;;;;;;;1.58;0.75;;;;;;;;;;5034630;28;20053;-52
2022/11/16 02:50:05;;;;;;;2.03;0.70;;;;;;;;;;5051497;28;20052;-50
2022/11/16 02:52:33;;;;;;;1.52;0.70;;;;;;;;;;5047715;28;20110;-50
2022/11/16 02:55:00;;;;;;;2.47;0.80;;;;;;;;;;5046602;28;20049;-52
2022/11/16 02:57:32;;;;;;;1.67;0.85;;;;;;;;;;5037060;28;20445;-51
2022/11/16 03:00:00;;;;;;;1.48;0.60;;;;;;;;;;5041114;28;20542;-51
2022/11/16 03:02:31;;;;;;;0.95;0.55;;;;;;;;;;5035055;28;20425;-49
2022/11/16 03:05:02;;;;;;;2.35;0.63;;;;;;;;;;5032872;28;20156;-50
2022/11/16 03:07:33;;;;;;;1.35;0.68;;;;;;;;;;5032508;28;20080;-49
2022/11/16 03:10:01;;;;;;;1.73;0.45;;;;;;;;;;5052148;28;20553;-50
2022/11/16 03:12:30;;;;;;;1.60;0.60;;;;;;;;;;5051504;28;20049;-50
2022/11/16 03:14:59;;;;;;;1.48;0.45;;;;;;;;;;5052583;28;20107;-49
2022/11/16 03:17:28;;;;;;;0.98;0.50;;;;;;;;;;5051983;28;20136;-51
2022/11/16 03:19:57;;;;;;;1.15;0.60;;;;;;;;;;5041242;28;20049;-50
2022/11/16 03:22:28;;;;;;;3.15;0.80;;;;;;;;;;5049987;28;20041;-50
2022/11/16 03:24:56;;;;;;;0.70;0.40;;;;;;;;;;5043338;28;20128;-52
2022/11/16 03:27:27;;;;;;;1.50;0.43;;;;;;;;;;5052371;28;20084;-50
2022/11/16 03:30:00;;;;;;;1.42;0.45;;;;;;;;;;5051514;28;20049;-50
2022/11/16 03:32:30;;;;;;;1.13;0.40;;;;;;;;;;5053498;28;20124;-50
2022/11/16 03:35:00;;;;;;;0.90;0.40;;;;;;;;;;5042013;28;20529;-50
2022/11/16 03:37:31;;;;;;;0.98;0.40;;;;;;;;;;5054034;28;20462;-53
2022/11/16 03:40:00;;;;;;;1.35;0.60;;;;;;;;;;5038863;28;20135;-49
2022/11/16 03:42:27;;;;;;;0.90;0.50;;;;;;;;;;5055866;28;20136;-50
2022/11/16 03:44:55;;;;;;;1.00;0.28;;;;;;;;;;5052322;28;20128;-49
2022/11/16 03:47:23;;;;;;;0.90;0.40;;;;;;;;;;5047776;28;20132;-50
2022/11/16 03:49:51;;;;;;;0.70;0.30;;;;;;;;;;5050741;28;20132;-51
2022/11/16 03:52:19;;;;;;;2.08;0.40;;;;;;;;;;5046635;28;20084;-51
2022/11/16 03:54:47;;;;;;;1.30;0.50;;;;;;;;;;5049773;28;20046;-51
2022/11/16 03:57:17;;;;;;;2.47;0.65;;;;;;;;;;5042845;28;20132;-54
2022/11/16 03:59:45;;;;;;;2.30;0.50;;;;;;;;;;5044020;28;20047;-51
2022/11/16 04:02:12;;;;;;;1.15;0.40;;;;;;;;;;5041980;28;20048;-51
2022/11/16 04:24:14;;;;;;;2.92;0.65;;;;;;;;;;5054384;28;20367;-51
2022/11/16 04:29:30;;;;;;;1.25;0.52;;;;;;;;;;5051363;28;20555;-54
2022/11/16 04:40:18;;;;;;;2.80;0.57;;;;;;;;;;5040827;28;20083;-51
2022/11/16 04:42:52;;;;;;;2.53;0.80;;;;;;;;;;5049728;28;20111;-50
2022/11/16 04:48:05;;;;;;;1.45;0.50;;;;;;;;;;5044348;28;20056;-50
2022/11/16 04:50:33;;;;;;;1.38;0.47;;;;;;;;;;5038425;28;20393;-50
2022/11/16 04:53:01;;;;;;;1.45;0.50;;;;;;;;;;5038161;28;20132;-52
2022/11/16 04:55:29;;;;;;;1.20;0.47;;;;;;;;;;5036287;28;20124;-50
2022/11/16 04:57:58;;;;;;;2.25;0.40;;;;;;;;;;5048011;28;20486;-50
2022/11/16 05:00:26;;;;;;;0.70;0.20;;;;;;;;;;5048931;28;20049;-52
2022/11/16 05:02:53;;;;;;;2.40;0.45;;;;;;;;;;5043138;28;20071;-50
2022/11/16 05:05:21;;;;;;;1.55;0.63;;;;;;;;;;5052246;28;20157;-51
2022/11/16 05:07:48;;;;;;;2.42;0.40;;;;;;;;;;5053239;28;20445;-51
2022/11/16 05:10:16;;;;;;;1.05;0.60;;;;;;;;;;5050161;28;20052;-50
2022/11/16 05:12:43;;;;;;;0.80;0.47;;;;;;;;;;5040926;28;20484;-50
2022/11/16 05:15:11;;;;;;;0.52;0.38;;;;;;;;;;5053337;28;20128;-50
2022/11/16 05:17:37;;;;;;;0.57;0.40;;;;;;;;;;5045398;28;20085;-50
2022/11/16 05:22:52;;;;;;;1.05;0.47;;;;;;;;;;5048771;28;20926;-50
2022/11/16 05:25:17;;;;;;;0.80;0.30;;;;;;;;;;5034217;28;20057;-50
2022/11/16 05:27:44;;;;;;;0.65;0.30;;;;;;;;;;5043835;28;20071;-50
2022/11/16 05:30:12;;;;;;;1.02;0.30;;;;;;;;;;5044799;28;20500;-53
2022/11/16 05:32:38;;;;;;;2.85;0.30;;;;;;;;;;5043648;28;20037;-50
2022/11/16 05:35:05;;;;;;;0.50;0.30;;;;;;;;;;5041093;28;20718;-50
2022/11/16 05:37:31;;;;;;;0.88;0.35;;;;;;;;;;5045404;28;20083;-50
2022/11/16 05:39:59;;;;;;;1.17;0.40;;;;;;;;;;5037328;28;20087;-53
2022/11/16 05:42:26;;;;;;;0.60;0.30;;;;;;;;;;5034017;28;20121;-51
2022/11/16 05:44:53;;;;;;;0.98;0.57;;;;;;;;;;5048517;28;20059;-53
2022/11/16 05:47:20;;;;;;;0.82;0.30;;;;;;;;;;5044115;28;20152;-53
2022/11/16 05:49:47;;;;;;;0.52;0.30;;;;;;;;;;5041614;28;20720;-50
2022/11/16 05:52:13;;;;;;;0.75;0.40;;;;;;;;;;5044733;28;20175;-53
2022/11/16 05:54:40;;;;;;;0.93;0.30;;;;;;;;;;5040295;28;20508;-52
2022/11/16 05:57:06;;;;;;;1.10;0.60;;;;;;;;;;5045368;28;20053;-51
2022/11/16 05:59:32;;;;;;;1.88;0.57;;;;;;;;;;5045541;28;20052;-51
2022/11/16 06:01:59;;;;;;;0.80;0.38;;;;;;;;;;5036704;28;20136;-52
2022/11/16 06:04:26;;;;;;;2.00;0.40;;;;;;;;;;5034575;28;20081;-51
2022/11/16 06:06:53;;;;;;;2.35;0.55;;;;;;;;;;5048691;28;21444;-51
2022/11/16 06:09:19;;;;;;;1.67;0.60;;;;;;;;;;5031988;28;20141;-52
2022/11/16 06:11:46;;;;;;;3.13;0.80;;;;;;;;;;5031642;28;20379;-51
2022/11/16 06:14:12;;;;;;;0.95;0.50;;;;;;;;;;5044513;28;20140;-51
2022/11/16 06:16:38;;;;;;;1.30;0.50;;;;;;;;;;5039037;28;20087;-52
2022/11/16 06:19:05;;;;;;;0.98;0.30;;;;;;;;;;5052144;28;20136;-53
2022/11/16 06:21:32;;;;;;;1.52;0.40;;;;;;;;;;5051949;28;20127;-52
2022/11/16 06:24:00;;;;;;;1.88;0.50;;;;;;;;;;5051589;28;20465;-54
2022/11/16 06:26:26;;;;;;;0.85;0.43;;;;;;;;;;5051454;28;20049;-52
2022/11/16 06:28:53;;;;;;;1.85;0.40;;;;;;;;;;5052114;28;20056;-53
2022/11/16 06:31:20;;;;;;;0.32;0.30;;;;;;;;;;5051067;28;20076;-53
2022/11/16 06:33:46;;;;;;;0.90;0.30;;;;;;;;;;5052433;28;20049;-52
2022/11/16 06:36:13;;;;;;;1.17;0.45;;;;;;;;;;5051964;28;20158;-50
2022/11/16 06:38:40;;;;;;;0.40;0.20;;;;;;;;;;5045571;28;20136;-50
2022/11/16 06:41:07;;;;;;;1.05;0.35;;;;;;;;;;5032839;28;20049;-50
2022/11/16 06:43:33;;;;;;;1.85;0.30;;;;;;;;;;5032408;28;20136;-51
2022/11/16 06:45:59;;;;;;;0.50;0.30;;;;;;;;;;5032202;28;20079;-49
2022/11/16 06:48:26;;;;;;;0.65;0.30;;;;;;;;;;5051952;28;20135;-50
2022/11/16 06:50:52;;;;;;;2.08;0.40;;;;;;;;;;5038699;28;20205;-50
2022/11/16 06:53:19;;;;;;;0.88;0.45;;;;;;;;;;5032931;28;20518;-52
2022/11/16 06:55:47;;;;;;;3.40;0.60;;;;;;;;;;5039201;28;20120;-52
2022/11/16 06:58:13;;;;;;;1.10;0.65;;;;;;;;;;5032459;28;20362;-53
2022/11/16 07:00:40;;;;;;;1.00;0.65;;;;;;;;;;5044649;28;20132;-54
2022/11/16 07:03:06;;;;;;;1.42;0.80;;;;;;;;;;5043637;28;20076;-51
2022/11/16 07:05:33;;;;;;;1.77;0.50;;;;;;;;;;5052113;28;20119;-51
2022/11/16 07:07:59;;;;;;;1.13;0.50;;;;;;;;;;5044822;28;20067;-52
2022/11/16 07:10:26;;;;;;;2.17;0.50;;;;;;;;;;5038351;28;20136;-52
2022/11/16 07:12:53;;;;;;;2.25;0.60;;;;;;;;;;5049685;28;20084;-52
2022/11/16 07:15:20;;;;;;;1.48;0.63;;;;;;;;;;5052921;28;20132;-51
2022/11/16 07:17:46;;;;;;;1.73;0.50;;;;;;;;;;5050491;28;20053;-51
2022/11/16 07:20:13;;;;;;;1.08;0.40;;;;;;;;;;5053268;28;20042;-54
2022/11/16 07:22:39;;;;;;;1.45;0.60;;;;;;;;;;5050644;28;20040;-51
2022/11/16 07:25:06;;;;;;;1.23;0.50;;;;;;;;;;5045313;28;20144;-51
2022/11/16 07:27:32;;;;;;;1.77;0.63;;;;;;;;;;5046759;28;20053;-51
2022/11/16 07:30:00;;;;;;;1.05;0.55;;;;;;;;;;5051954;28;20156;-51
2022/11/16 07:32:28;;;;;;;1.08;0.50;;;;;;;;;;5050083;28;20538;-53
2022/11/16 07:34:54;;;;;;;2.50;0.73;;;;;;;;;;5059053;28;20227;-55
2022/11/16 07:37:21;;;;;;;1.52;0.60;;;;;;;;;;5051980;28;20132;-53
2022/11/16 07:39:47;;;;;;;1.45;0.80;;;;;;;;;;5043630;28;20087;-52
2022/11/16 07:42:13;;;;;;;2.15;0.77;;;;;;;;;;5038863;28;20132;-54
2022/11/16 07:44:40;;;;;;;2.75;0.90;;;;;;;;;;5043803;28;20041;-52
2022/11/16 07:47:08;;;;;;;1.55;0.70;;;;;;;;;;5046400;28;20136;-51
2022/11/16 07:49:34;;;;;;;2.15;0.75;;;;;;;;;;5050366;28;20059;-51
2022/11/16 07:52:02;;;;;;;5.32;1.60;;;;;;;;;;5050393;28;20088;-51
2022/11/16 07:54:29;;;;;;;3.25;1.10;;;;;;;;;;5041980;28;20103;-53
2022/11/16 07:56:55;;;;;;;1.25;0.55;;;;;;;;;;5039628;28;20586;-52
2022/11/16 07:59:22;;;;;;;2.65;0.82;;;;;;;;;;5052628;28;20124;-54
2022/11/16 08:01:48;;;;;;;2.70;0.80;;;;;;;;;;5058156;28;20144;-52
2022/11/16 08:04:16;;;;;;;3.13;0.90;;;;;;;;;;5057675;28;20364;-54
2022/11/16 08:06:45;;;;;;;1.77;0.80;;;;;;;;;;5055798;28;20048;-52
2022/11/16 08:09:12;;;;;;;1.42;0.63;;;;;;;;;;5049888;28;20049;-51
2022/11/16 08:11:39;;;;;;;1.40;0.80;;;;;;;;;;5050643;28;20089;-51
2022/11/16 08:14:05;;;;;;;1.95;0.65;;;;;;;;;;5050321;28;20139;-54
2022/11/16 08:16:32;;;;;;;1.10;0.47;;;;;;;;;;5044930;28;20046;-51
2022/11/16 08:18:58;;;;;;;2.38;0.60;;;;;;;;;;5044176;28;20347;-51
2022/11/16 08:21:26;;;;;;;1.92;0.43;;;;;;;;;;5041249;28;20041;-52
2022/11/16 08:23:53;;;;;;;2.00;0.90;;;;;;;;;;5045987;28;20041;-51
2022/11/16 08:26:20;;;;;;;1.58;0.63;;;;;;;;;;5038260;28;20045;-52
2022/11/16 08:28:49;;;;;;;1.27;0.70;;;;;;;;;;5054214;28;20052;-53
2022/11/16 08:31:16;;;;;;;2.15;0.70;;;;;;;;;;5050956;28;20045;-52
2022/11/16 08:33:43;;;;;;;1.85;0.77;;;;;;;;;;5053965;28;20445;-51
2022/11/16 08:36:11;;;;;;;1.02;0.50;;;;;;;;;;5045846;28;20056;-54
2022/11/16 08:38:40;;;;;;;0.40;0.30;;;;;;;;;;5053160;28;20055;-51
2022/11/16 08:41:06;;;;;;;2.72;0.50;;;;;;;;;;5042013;28;20068;-52
2022/11/16 08:43:33;;;;;;;1.10;0.32;;;;;;;;;;5035022;28;20128;-51
2022/11/16 08:46:00;;;;;;;0.60;0.30;;;;;;;;;;5044775;28;20068;-51
2022/11/16 08:48:26;;;;;;;0.55;0.30;;;;;;;;;;5041071;28;20478;-54
2022/11/16 08:50:53;;;;;;;0.50;0.30;;;;;;;;;;5052777;28;20139;-54
2022/11/16 08:53:19;;;;;;;1.52;0.47;;;;;;;;;;5035777;28;20061;-51
2022/11/16 08:55:50;;;;;;;0.70;0.30;;;;;;;;;;5041313;28;20479;-51
2022/11/16 08:58:16;;;;;;;0.77;0.40;;;;;;;;;;5035676;28;20157;-51
2022/11/16 09:00:43;;;;;;;0.98;0.40;;;;;;;;;;5051028;28;20140;-51
2022/11/16 09:03:09;;;;;;;2.58;0.47;;;;;;;;;;5042388;28;20550;-51
2022/11/16 09:05:35;;;;;;;1.63;0.50;;;;;;;;;;5052840;28;20140;-51
2022/11/16 09:08:02;;;;;;;1.45;0.38;;;;;;;;;;5053945;28;20049;-51
2022/11/16 09:10:28;;;;;;;2.65;0.40;;;;;;;;;;5048060;28;20045;-52
2022/11/16 09:12:56;;;;;;;0.98;0.30;;;;;;;;;;5043755;28;20542;-54
2022/11/16 09:15:22;;;;;;;1.98;0.52;;;;;;;;;;5053066;28;20536;-51
2022/11/16 09:17:53;;;;;;;1.40;0.68;;;;;;;;;;5041486;28;20053;-54
2022/11/16 09:20:20;;;;;;;2.35;0.60;;;;;;;;;;5034906;28;20315;-50
2022/11/16 09:22:46;;;;;;;2.47;0.68;;;;;;;;;;5047726;28;20140;-51
2022/11/16 09:25:12;;;;;;;1.42;0.50;;;;;;;;;;5041150;28;20505;-51
2022/11/16 09:27:39;;;;;;;1.20;0.60;;;;;;;;;;5040325;28;20148;-53
2022/11/16 09:30:07;;;;;;;1.83;0.80;;;;;;;;;;5037718;28;20144;-52
2022/11/16 09:32:34;;;;;;;1.98;0.63;;;;;;;;;;5044869;28;20053;-51
2022/11/16 09:35:00;;;;;;;2.85;0.70;;;;;;;;;;5042246;28;20139;-51
2022/11/16 09:37:27;;;;;;;1.33;0.60;;;;;;;;;;5052070;28;20083;-54
2022/11/16 09:39:53;;;;;;;3.55;0.60;;;;;;;;;;5050601;28;20087;-52
2022/11/16 09:42:24;;;;;;;2.53;0.98;;;;;;;;;;5042948;28;20115;-51
2022/11/16 09:45:03;;;;;;;1.38;0.73;;;;;;;;;;5046548;28;20103;-53
2022/11/16 09:47:38;;;;;;;2.22;0.80;;;;;;;;;;5045321;28;20049;-51
2022/11/16 09:50:05;;;;;;;1.52;0.82;;;;;;;;;;5033373;28;20053;-52
2022/11/16 09:52:33;;;;;;;2.92;1.00;;;;;;;;;;5033224;28;20149;-54
2022/11/16 09:55:03;;;;;;;3.47;1.67;;;;;;;;;;5034624;28;20148;-52
2022/11/16 09:57:32;;;;;;;2.88;0.88;;;;;;;;;;5037973;28;20095;-51
2022/11/16 10:00:02;;;;;;;1.77;1.13;;;;;;;;;;5037167;28;20153;-51
2022/11/16 10:02:32;;;;;;;4.45;1.20;;;;;;;;;;5039285;28;20064;-51
2022/11/16 10:05:02;;;;;;;2.40;1.00;;;;;;;;;;5036265;28;20474;-51
2022/11/16 10:07:31;;;;;;;2.67;0.98;;;;;;;;;;5038966;28;20075;-51
2022/11/16 10:09:58;;;;;;;1.73;0.90;;;;;;;;;;5047541;28;20137;-51
2022/11/16 10:12:25;;;;;;;1.63;0.77;;;;;;;;;;5039359;28;20128;-55
2022/11/16 10:15:03;;;;;;;1.30;0.60;;;;;;;;;;5041076;28;20168;-51
2022/11/16 10:17:33;;;;;;;2.53;0.90;;;;;;;;;;5036606;28;20056;-52
2022/11/16 10:20:06;;;;;;;1.73;0.68;;;;;;;;;;5046236;28;20053;-51
2022/11/16 10:22:40;;;;;;;0.70;0.40;;;;;;;;;;5041800;28;20059;-53
2022/11/16 10:25:10;;;;;;;1.02;0.50;;;;;;;;;;5036514;28;20144;-51
2022/11/16 10:27:46;;;;;;;1.70;0.75;;;;;;;;;;5039608;28;20044;-54
2022/11/16 10:30:14;;;;;;;1.52;0.50;;;;;;;;;;5036652;28;20049;-52
2022/11/16 10:32:45;;;;;;;1.77;0.80;;;;;;;;;;5035949;28;20135;-50
2022/11/16 10:35:15;;;;;;;1.25;0.57;;;;;;;;;;5032551;28;20050;-53
2022/11/16 10:37:45;;;;;;;2.40;0.77;;;;;;;;;;5047479;28;20136;-53
2022/11/16 10:40:15;;;;;;;2.00;1.00;;;;;;;;;;5039239;28;20136;-51
2022/11/16 10:42:43;;;;;;;1.05;0.70;;;;;;;;;;5048728;28;20063;-52
2022/11/16 10:45:15;;;;;;;1.17;0.73;;;;;;;;;;5046661;28;20132;-54
2022/11/16 10:47:45;;;;;;;2.63;0.93;;;;;;;;;;5045914;28;20052;-53
2022/11/16 10:50:25;;;;;;;1.10;0.60;;;;;;;;;;5045367;28;20080;-51
2022/11/16 10:52:52;;;;;;;1.23;0.63;;;;;;;;;;5045417;28;20164;-50
2022/11/16 10:55:20;;;;;;;2.42;1.05;;;;;;;;;;5036045;28;20456;-51
2022/11/16 10:57:53;;;;;;;1.67;0.70;;;;;;;;;;5038855;28;20137;-51
2022/11/16 11:00:33;;;;;;;1.65;1.02;;;;;;;;;;5045692;28;20470;-53
2022/11/16 11:02:59;;;;;;;1.85;0.50;;;;;;;;;;5042478;28;20045;-53
2022/11/16 11:05:27;;;;;;;1.58;0.60;;;;;;;;;;5032585;28;20132;-53
2022/11/16 11:08:00;;;;;;;1.30;0.60;;;;;;;;;;5043257;28;20156;-51
2022/11/16 11:10:28;;;;;;;2.83;0.80;;;;;;;;;;5033787;28;20077;-52
2022/11/16 11:13:19;;;;;;;1.35;0.60;;;;;;;;;;5036079;28;20144;-52
2022/11/16 11:15:46;;;;;;;1.25;0.57;;;;;;;;;;5040567;28;20132;-50
2022/11/16 11:18:17;;;;;;;2.80;0.60;;;;;;;;;;5051990;28;20088;-50
2022/11/16 11:20:47;;;;;;;2.67;0.63;;;;;;;;;;5051886;28;20088;-52
2022/11/16 11:23:14;;;;;;;1.83;0.80;;;;;;;;;;5050369;28;20049;-53
2022/11/16 11:25:42;;;;;;;0.80;0.50;;;;;;;;;;5042045;28;20553;-51
2022/11/16 11:28:16;;;;;;;1.83;0.70;;;;;;;;;;5050669;28;20419;-54
2022/11/16 11:30:51;;;;;;;1.58;0.80;;;;;;;;;;5039679;28;20057;-53
2022/11/16 11:33:19;;;;;;;1.48;0.70;;;;;;;;;;5043331;28;20050;-51
2022/11/16 11:35:56;;;;;;;1.08;0.50;;;;;;;;;;5033093;28;20053;-54
2022/11/16 11:38:22;;;;;;;1.27;0.63;;;;;;;;;;5047559;28;20064;-50
2022/11/16 11:40:56;;;;;;;1.10;0.60;;;;;;;;;;5037888;28;20141;-51
2022/11/16 11:43:23;;;;;;;0.90;0.52;;;;;;;;;;5038312;28;20512;-53
2022/11/16 11:45:54;;;;;;;1.13;0.70;;;;;;;;;;5051955;28;20041;-50
2022/11/16 11:48:27;;;;;;;0.93;0.60;;;;;;;;;;5037687;28;20360;-52
2022/11/16 11:50:57;;;;;;;0.73;0.45;;;;;;;;;;5051717;28;20144;-52
2022/11/16 11:53:39;;;;;;;1.10;0.55;;;;;;;;;;5045874;28;20148;-53
2022/11/16 11:56:06;;;;;;;0.95;0.60;;;;;;;;;;5047793;28;20046;-52
2022/11/16 11:58:34;;;;;;;1.65;0.80;;;;;;;;;;5044988;28;20131;-51
2022/11/16 12:01:12;;;;;;;2.90;0.80;;;;;;;;;;5055086;28;20130;-50
2022/11/16 12:03:45;;;;;;;3.28;0.80;;;;;;;;;;5051349;28;20092;-50
2022/11/16 12:06:19;;;;;;;2.72;1.00;;;;;;;;;;5045141;28;20450;-51
2022/11/16 12:09:17;;;;;;;1.55;0.80;;;;;;;;;;5039794;28;20623;-50
2022/11/16 12:11:50;;;;;;;1.90;0.90;;;;;;;;;;5051139;28;20063;-50
2022/11/16 12:14:23;;;;;;;1.60;0.93;;;;;;;;;;5038262;28;20168;-51
2022/11/16 12:16:52;;;;;;;1.25;0.70;;;;;;;;;;5035382;28;20136;-52
2022/11/16 12:19:30;;;;;;;1.63;0.60;;;;;;;;;;5035999;28;20085;-53
2022/11/16 12:22:04;;;;;;;1.23;0.65;;;;;;;;;;5041936;28;20160;-53
2022/11/16 12:24:41;;;;;;;0.80;0.50;;;;;;;;;;5052920;28;20132;-54
2022/11/16 12:27:12;;;;;;;0.98;0.50;;;;;;;;;;5048299;28;20183;-51
2022/11/16 12:29:43;;;;;;;0.90;0.68;;;;;;;;;;5041156;28;20139;-51
2022/11/16 12:32:20;;;;;;;2.13;0.80;;;;;;;;;;5054658;28;20049;-52
2022/11/16 12:35:00;;;;;;;2.65;0.88;;;;;;;;;;5054049;28;20138;-52
2022/11/16 12:37:32;;;;;;;1.30;0.70;;;;;;;;;;5052843;28;20049;-55
2022/11/16 12:40:10;;;;;;;1.27;0.70;;;;;;;;;;5037803;28;20156;-54
2022/11/16 12:42:41;;;;;;;1.55;0.57;;;;;;;;;;5033998;28;20087;-51
2022/11/16 12:45:21;;;;;;;1.60;0.70;;;;;;;;;;5053050;28;20087;-55
2022/11/16 12:47:57;;;;;;;3.85;0.90;;;;;;;;;;5051039;28;20049;-54
2022/11/16 12:50:33;;;;;;;2.10;0.75;;;;;;;;;;5036515;28;20427;-51
2022/11/16 12:53:10;;;;;;;1.10;0.68;;;;;;;;;;5037631;28;20144;-51
2022/11/16 12:55:41;;;;;;;1.45;1.00;;;;;;;;;;5047958;28;20052;-52
2022/11/16 12:58:13;;;;;;;2.10;1.00;;;;;;;;;;5052822;28;20052;-55
2022/11/16 13:00:48;;;;;;;1.65;0.82;;;;;;;;;;5053413;28;20048;-54
2022/11/16 13:03:18;;;;;;;1.23;0.70;;;;;;;;;;5042033;28;20847;-54
2022/11/16 13:05:49;;;;;;;2.70;1.55;;;;;;;;;;5040204;28;20167;-52
2022/11/16 13:08:23;;;;;;;5.70;1.23;;;;;;;;;;5040675;28;20080;-51
2022/11/16 13:10:51;;;;;;;1.98;0.95;;;;;;;;;;5054313;28;20055;-51
2022/11/16 13:13:22;;;;;;;2.08;0.90;;;;;;;;;;5043884;28;20090;-50
2022/11/16 13:15:49;;;;;;;2.08;1.10;;;;;;;;;;5036576;28;20041;-52
2022/11/16 13:18:16;;;;;;;2.25;1.25;;;;;;;;;;5047283;28;20168;-50
2022/11/16 13:20:46;;;;;;;2.95;1.20;;;;;;;;;;5050949;28;20052;-49
2022/11/16 13:23:16;;;;;;;2.83;1.20;;;;;;;;;;5049731;28;20055;-50
2022/11/16 13:25:48;;;;;;;1.60;0.90;;;;;;;;;;5042954;28;20132;-53
2022/11/16 13:28:18;;;;;;;1.70;0.90;;;;;;;;;;5040582;28;20133;-52
2022/11/16 13:30:48;;;;;;;2.75;0.90;;;;;;;;;;5033567;28;20537;-54
2022/11/16 13:33:21;;;;;;;2.55;1.00;;;;;;;;;;5040837;28;20084;-54
2022/11/16 13:35:48;;;;;;;1.75;1.10;;;;;;;;;;5046253;28;20143;-52
2022/11/16 13:38:14;;;;;;;2.10;1.10;;;;;;;;;;5051377;28;20148;-55
2022/11/16 13:40:41;;;;;;;1.55;0.90;;;;;;;;;;5053024;28;20045;-53
2022/11/16 13:43:16;;;;;;;2.05;1.00;;;;;;;;;;5052098;28;20140;-53
2022/11/16 13:45:44;;;;;;;2.58;0.95;;;;;;;;;;5049489;28;20462;-52
2022/11/16 13:48:18;;;;;;;1.95;0.93;;;;;;;;;;5051326;28;20084;-53
2022/11/16 13:50:48;;;;;;;2.45;0.90;;;;;;;;;;5047811;28;20056;-54
2022/11/16 13:53:21;;;;;;;2.50;1.25;;;;;;;;;;5045823;28;20570;-54
2022/11/16 13:55:54;;;;;;;1.50;0.90;;;;;;;;;;5043139;28;20084;-54
2022/11/16 13:58:22;;;;;;;3.92;1.52;;;;;;;;;;5048180;28;20136;-54
2022/11/16 14:00:55;;;;;;;4.07;1.27;;;;;;;;;;5051643;28;20140;-53
2022/11/16 14:03:26;;;;;;;1.80;1.05;;;;;;;;;;5039902;28;20089;-52
2022/11/16 14:05:52;;;;;;;3.22;1.25;;;;;;;;;;5044948;28;20129;-53
2022/11/16 14:08:37;;;;;;;2.45;1.08;;;;;;;;;;5051617;28;20071;-52
2022/11/16 14:11:05;;;;;;;3.50;1.17;;;;;;;;;;5051951;28;20063;-55
2022/11/16 14:13:39;;;;;;;1.95;1.10;;;;;;;;;;5050972;28;20493;-51
2022/11/16 14:16:21;;;;;;;1.83;1.10;;;;;;;;;;5044020;28;20128;-52
2022/11/16 14:18:48;;;;;;;2.28;1.10;;;;;;;;;;5040521;28;20049;-53
2022/11/16 14:21:16;;;;;;;2.30;1.30;;;;;;;;;;5051939;28;20507;-54
2022/11/16 14:23:52;;;;;;;3.78;1.75;;;;;;;;;;5047699;28;20057;-53
2022/11/16 14:26:22;;;;;;;2.55;1.30;;;;;;;;;;5041865;28;20527;-53
2022/11/16 14:28:55;;;;;;;2.58;1.13;;;;;;;;;;5052418;28;20076;-52
2022/11/16 14:31:23;;;;;;;4.28;1.88;;;;;;;;;;5046521;28;20453;-52
2022/11/16 14:33:51;;;;;;;3.15;1.27;;;;;;;;;;5052171;28;20045;-51
2022/11/16 14:36:31;;;;;;;2.47;1.20;;;;;;;;;;5035496;28;20173;-52
2022/11/16 14:39:13;;;;;;;2.33;0.98;;;;;;;;;;5039199;28;20123;-53
2022/11/16 14:41:43;;;;;;;3.40;1.42;;;;;;;;;;5051822;28;20480;-54
2022/11/16 14:44:11;;;;;;;2.50;1.27;;;;;;;;;;5035912;28;20513;-53
2022/11/16 14:46:38;;;;;;;2.58;1.27;;;;;;;;;;5036597;28;20041;-51
2022/11/16 14:49:05;;;;;;;1.83;0.98;;;;;;;;;;5043376;28;20434;-51
2022/11/16 14:51:32;;;;;;;2.00;1.10;;;;;;;;;;5043728;28;20466;-54
2022/11/16 14:54:00;;;;;;;1.55;0.95;;;;;;;;;;5043216;28;20231;-55
2022/11/16 14:56:28;;;;;;;2.50;1.05;;;;;;;;;;5045383;28;20132;-55
2022/11/16 14:58:55;;;;;;;2.30;1.08;;;;;;;;;;5043917;28;20104;-52
2022/11/16 15:01:25;;;;;;;1.90;0.90;;;;;;;;;;5042133;28;20144;-54
2022/11/16 15:03:54;;;;;;;1.98;1.00;;;;;;;;;;5036298;28;20132;-52
2022/11/16 15:06:21;;;;;;;2.33;0.98;;;;;;;;;;5046446;28;20529;-53
2022/11/16 15:08:49;;;;;;;2.70;0.90;;;;;;;;;;5050722;28;20128;-51
2022/11/16 15:11:20;;;;;;;1.95;0.70;;;;;;;;;;5040247;28;20083;-52
2022/11/16 15:13:47;;;;;;;2.15;1.10;;;;;;;;;;5041338;28;20067;-52
2022/11/16 15:16:15;;;;;;;1.42;0.82;;;;;;;;;;5038698;28;20063;-52
2022/11/16 15:18:55;;;;;;;1.52;0.90;;;;;;;;;;5050828;28;20041;-50
2022/11/16 15:21:22;;;;;;;2.28;0.85;;;;;;;;;;5049777;28;20469;-51
2022/11/16 15:23:48;;;;;;;2.33;1.20;;;;;;;;;;5048627;28;20074;-50
2022/11/16 15:26:18;;;;;;;2.08;0.80;;;;;;;;;;5049152;28;20553;-51
2022/11/16 15:28:45;;;;;;;4.25;0.95;;;;;;;;;;5051563;28;20147;-51
2022/11/16 15:31:12;;;;;;;1.92;1.00;;;;;;;;;;5053825;28;20148;-50
2022/11/16 15:33:42;;;;;;;2.03;1.10;;;;;;;;;;5054636;28;20045;-54
2022/11/16 15:36:22;;;;;;;2.42;0.82;;;;;;;;;;5053054;28;20111;-51
2022/11/16 15:38:50;;;;;;;2.72;1.00;;;;;;;;;;5053933;28;20131;-52